RPA3611 KIAD-KUNV
Flight info
| Callsign | RPA3611 |
|---|---|
| Flight time | 0h 29m |
| Altitude | 15000 |
| Route | MRB HGR T477 PSB |
| Aircraft | A339/H-SADE1E2E3GHIJ3J5M1P2RWXY/LB2D1 |
Departure
| Time | 2026-05-06 21:39 |
|---|---|
| Airport | Washington Dulles International Airport (KIAD) |
Arrival
| Time | 2026-05-06 22:09 |
|---|---|
| Airport | State College Regional Airport (KUNV) |
| Time | Latitude | Longitude | Altitude | Speed | Heading |
|---|---|---|---|---|---|
| 2026-05-06 21:18 | 38.95143 | -77.44565 | 300 ft | 0 kts | 0° |
| 2026-05-06 21:28 | 38.95132 | -77.44565 | 299 ft | 2 kts | 4° |
| 2026-05-06 21:28 | 38.95118 | -77.44571 | 300 ft | 2 kts | 42° |
| 2026-05-06 21:28 | 38.95109 | -77.44586 | 300 ft | 2 kts | 71° |
| 2026-05-06 21:29 | 38.95106 | -77.44598 | 300 ft | 0 kts | 91° |
| 2026-05-06 21:29 | 38.95107 | -77.44604 | 300 ft | 0 kts | 91° |
| 2026-05-06 21:31 | 38.95106 | -77.44579 | 300 ft | 6 kts | 91° |
| 2026-05-06 21:31 | 38.95106 | -77.44492 | 300 ft | 11 kts | 90° |
| 2026-05-06 21:31 | 38.95106 | -77.44381 | 300 ft | 12 kts | 90° |
| 2026-05-06 21:32 | 38.95105 | -77.44263 | 300 ft | 13 kts | 91° |
| 2026-05-06 21:32 | 38.95103 | -77.44139 | 302 ft | 4 kts | 90° |
| 2026-05-06 21:32 | 38.95103 | -77.44101 | 303 ft | 3 kts | 90° |
| 2026-05-06 21:33 | 38.95103 | -77.44057 | 303 ft | 6 kts | 90° |
| 2026-05-06 21:33 | 38.95109 | -77.43986 | 303 ft | 7 kts | 64° |
| 2026-05-06 21:33 | 38.95159 | -77.43967 | 302 ft | 8 kts | 0° |
| 2026-05-06 21:33 | 38.95237 | -77.43964 | 302 ft | 13 kts | 2° |
| 2026-05-06 21:34 | 38.95345 | -77.43962 | 302 ft | 16 kts | 1° |
| 2026-05-06 21:34 | 38.95446 | -77.43961 | 302 ft | 11 kts | 0° |
| 2026-05-06 21:34 | 38.95490 | -77.43932 | 302 ft | 7 kts | 66° |
| 2026-05-06 21:34 | 38.95488 | -77.43845 | 302 ft | 11 kts | 93° |
| 2026-05-06 21:35 | 38.95486 | -77.43765 | 303 ft | 2 kts | 91° |
| 2026-05-06 21:35 | 38.95486 | -77.43760 | 303 ft | 0 kts | 91° |
| 2026-05-06 21:35 | 38.95486 | -77.43752 | 303 ft | 1 kts | 91° |
| 2026-05-06 21:35 | 38.95486 | -77.43748 | 303 ft | 0 kts | 91° |
| 2026-05-06 21:36 | 38.95486 | -77.43746 | 303 ft | 0 kts | 91° |
| 2026-05-06 21:37 | 38.95486 | -77.43744 | 303 ft | 1 kts | 91° |
| 2026-05-06 21:38 | 38.95485 | -77.43685 | 304 ft | 11 kts | 91° |
| 2026-05-06 21:38 | 38.95420 | -77.43600 | 304 ft | 19 kts | 179° |
| 2026-05-06 21:38 | 38.95118 | -77.43607 | 304 ft | 75 kts | 179° |
| 2026-05-06 21:38 | 38.94393 | -77.43617 | 312 ft | 132 kts | 180° |
| 2026-05-06 21:39 | 38.93317 | -77.43629 | 444 ft | 167 kts | 181° |
| 2026-05-06 21:39 | 38.92194 | -77.43609 | 1126 ft | 161 kts | 181° |
| 2026-05-06 21:39 | 38.91116 | -77.43575 | 1821 ft | 153 kts | 181° |
| 2026-05-06 21:39 | 38.90015 | -77.43545 | 2160 ft | 167 kts | 183° |
| 2026-05-06 21:40 | 38.88888 | -77.43983 | 2469 ft | 180 kts | 220° |
| 2026-05-06 21:40 | 38.88215 | -77.45381 | 2804 ft | 199 kts | 258° |
| 2026-05-06 21:40 | 38.88330 | -77.47234 | 3168 ft | 220 kts | 283° |
| 2026-05-06 21:40 | 38.88933 | -77.49137 | 3566 ft | 243 kts | 302° |
| 2026-05-06 21:41 | 38.90264 | -77.50601 | 3983 ft | 268 kts | 325° |
| 2026-05-06 21:41 | 38.91915 | -77.51800 | 4669 ft | 275 kts | 327° |
| 2026-05-06 21:41 | 38.93580 | -77.52948 | 5399 ft | 277 kts | 327° |
| 2026-05-06 21:41 | 38.95284 | -77.54125 | 6121 ft | 278 kts | 326° |
| 2026-05-06 21:42 | 38.96965 | -77.55293 | 6799 ft | 279 kts | 325° |
| 2026-05-06 21:42 | 38.98696 | -77.56499 | 7473 ft | 282 kts | 324° |
| 2026-05-06 21:42 | 39.00411 | -77.57719 | 8227 ft | 284 kts | 326° |
| 2026-05-06 21:42 | 39.02129 | -77.58955 | 8970 ft | 287 kts | 328° |
| 2026-05-06 21:43 | 39.03871 | -77.60197 | 9732 ft | 290 kts | 329° |
| 2026-05-06 21:43 | 39.05649 | -77.61462 | 10496 ft | 294 kts | 331° |
| 2026-05-06 21:43 | 39.07464 | -77.62736 | 10861 ft | 306 kts | 330° |
| 2026-05-06 21:43 | 39.09392 | -77.64077 | 11109 ft | 324 kts | 329° |
| 2026-05-06 21:44 | 39.11434 | -77.65501 | 11349 ft | 340 kts | 326° |
| 2026-05-06 21:44 | 39.13527 | -77.66974 | 11572 ft | 356 kts | 325° |
| 2026-05-06 21:44 | 39.15719 | -77.68528 | 12017 ft | 364 kts | 324° |
| 2026-05-06 21:44 | 39.17956 | -77.70123 | 12703 ft | 366 kts | 324° |
| 2026-05-06 21:45 | 39.20181 | -77.71706 | 13435 ft | 366 kts | 325° |
| 2026-05-06 21:45 | 39.22405 | -77.73285 | 14224 ft | 367 kts | 324° |
| 2026-05-06 21:45 | 39.24647 | -77.74871 | 14759 ft | 366 kts | 324° |
| 2026-05-06 21:45 | 39.26867 | -77.76455 | 15025 ft | 366 kts | 324° |
| 2026-05-06 21:46 | 39.29102 | -77.78052 | 15020 ft | 366 kts | 323° |
| 2026-05-06 21:46 | 39.31323 | -77.79638 | 15023 ft | 363 kts | 323° |
| 2026-05-06 21:46 | 39.33508 | -77.81204 | 15008 ft | 364 kts | 324° |
| 2026-05-06 21:46 | 39.35743 | -77.82794 | 15005 ft | 366 kts | 324° |
| 2026-05-06 21:47 | 39.38106 | -77.84063 | 15009 ft | 375 kts | 335° |
| 2026-05-06 21:47 | 39.40687 | -77.84784 | 15015 ft | 382 kts | 345° |
| 2026-05-06 21:47 | 39.43345 | -77.84985 | 15021 ft | 388 kts | 350° |
| 2026-05-06 21:47 | 39.46057 | -77.85043 | 15022 ft | 388 kts | 351° |
| 2026-05-06 21:48 | 39.48763 | -77.85089 | 15020 ft | 389 kts | 351° |
| 2026-05-06 21:48 | 39.51472 | -77.85136 | 15020 ft | 388 kts | 351° |
| 2026-05-06 21:48 | 39.54149 | -77.85188 | 15025 ft | 389 kts | 351° |
| 2026-05-06 21:48 | 39.56856 | -77.85251 | 15027 ft | 388 kts | 351° |
| 2026-05-06 21:49 | 39.59590 | -77.85313 | 15027 ft | 389 kts | 351° |
| 2026-05-06 21:49 | 39.62272 | -77.85377 | 15027 ft | 389 kts | 351° |
| 2026-05-06 21:49 | 39.64974 | -77.85443 | 15028 ft | 389 kts | 350° |
| 2026-05-06 21:49 | 39.67690 | -77.85568 | 15030 ft | 386 kts | 347° |
| 2026-05-06 21:50 | 39.70343 | -77.85978 | 15032 ft | 381 kts | 342° |
| 2026-05-06 21:50 | 39.72903 | -77.86684 | 15037 ft | 376 kts | 337° |
| 2026-05-06 21:50 | 39.75434 | -77.87579 | 15043 ft | 376 kts | 336° |
| 2026-05-06 21:50 | 39.77935 | -77.88500 | 15038 ft | 375 kts | 336° |
| 2026-05-06 21:51 | 39.80467 | -77.89436 | 15084 ft | 377 kts | 336° |
| 2026-05-06 21:51 | 39.82977 | -77.90365 | 15040 ft | 377 kts | 336° |
| 2026-05-06 21:51 | 39.85485 | -77.91286 | 15075 ft | 375 kts | 336° |
| 2026-05-06 21:51 | 39.88008 | -77.92214 | 15073 ft | 375 kts | 336° |
| 2026-05-06 21:52 | 39.90499 | -77.93131 | 15074 ft | 375 kts | 336° |
| 2026-05-06 21:52 | 39.93043 | -77.94066 | 15061 ft | 376 kts | 336° |
| 2026-05-06 21:52 | 39.95562 | -77.94893 | 15054 ft | 380 kts | 340° |
| 2026-05-06 21:52 | 39.98182 | -77.95448 | 15056 ft | 385 kts | 345° |
| 2026-05-06 21:53 | 40.00892 | -77.95706 | 15059 ft | 390 kts | 349° |
| 2026-05-06 21:53 | 40.03620 | -77.95812 | 15053 ft | 390 kts | 350° |
| 2026-05-06 21:53 | 40.06295 | -77.95886 | 15021 ft | 389 kts | 350° |
| 2026-05-06 21:53 | 40.09002 | -77.95963 | 14704 ft | 386 kts | 350° |
| 2026-05-06 21:54 | 40.11676 | -77.96040 | 14171 ft | 383 kts | 350° |
| 2026-05-06 21:54 | 40.14344 | -77.96125 | 13555 ft | 384 kts | 351° |
| 2026-05-06 21:54 | 40.17011 | -77.96211 | 13039 ft | 383 kts | 350° |
| 2026-05-06 21:54 | 40.19639 | -77.96295 | 12537 ft | 381 kts | 351° |
| 2026-05-06 21:55 | 40.22272 | -77.96383 | 12048 ft | 379 kts | 351° |
| 2026-05-06 21:55 | 40.24910 | -77.96467 | 11572 ft | 376 kts | 351° |
| 2026-05-06 21:55 | 40.27526 | -77.96549 | 11109 ft | 373 kts | 351° |
| 2026-05-06 21:55 | 40.30089 | -77.96630 | 10867 ft | 364 kts | 350° |
| 2026-05-06 21:56 | 40.32570 | -77.96712 | 10692 ft | 353 kts | 350° |
| 2026-05-06 21:56 | 40.34993 | -77.96807 | 10527 ft | 343 kts | 349° |
| 2026-05-06 21:56 | 40.37358 | -77.96909 | 10353 ft | 333 kts | 349° |
| 2026-05-06 21:56 | 40.39611 | -77.97013 | 10180 ft | 322 kts | 349° |
| 2026-05-06 21:57 | 40.41838 | -77.97114 | 10020 ft | 313 kts | 349° |
| 2026-05-06 21:57 | 40.43963 | -77.97206 | 9871 ft | 305 kts | 349° |
| 2026-05-06 21:57 | 40.46080 | -77.97241 | 9674 ft | 303 kts | 356° |
| 2026-05-06 21:57 | 40.48165 | -77.96912 | 9366 ft | 305 kts | 1° |
| 2026-05-06 21:58 | 40.50261 | -77.96464 | 9058 ft | 305 kts | 2° |
| 2026-05-06 21:58 | 40.52335 | -77.96001 | 8777 ft | 303 kts | 2° |
| 2026-05-06 21:58 | 40.54425 | -77.95528 | 8508 ft | 301 kts | 2° |
| 2026-05-06 21:58 | 40.56487 | -77.95062 | 8222 ft | 300 kts | 2° |
| 2026-05-06 21:59 | 40.58520 | -77.94606 | 7940 ft | 298 kts | 2° |
| 2026-05-06 21:59 | 40.60571 | -77.94149 | 7657 ft | 296 kts | 2° |
| 2026-05-06 21:59 | 40.62602 | -77.93697 | 7377 ft | 295 kts | 2° |
| 2026-05-06 21:59 | 40.64620 | -77.93247 | 7097 ft | 293 kts | 3° |
| 2026-05-06 22:00 | 40.66604 | -77.92804 | 6805 ft | 291 kts | 3° |
| 2026-05-06 22:00 | 40.68616 | -77.92352 | 6519 ft | 290 kts | 3° |
| 2026-05-06 22:00 | 40.70580 | -77.91797 | 6232 ft | 292 kts | 11° |
| 2026-05-06 22:00 | 40.72516 | -77.90969 | 5986 ft | 291 kts | 14° |
| 2026-05-06 22:01 | 40.74403 | -77.90094 | 5754 ft | 288 kts | 14° |
| 2026-05-06 22:01 | 40.76282 | -77.89218 | 5508 ft | 285 kts | 14° |
| 2026-05-06 22:01 | 40.78131 | -77.88356 | 5253 ft | 282 kts | 15° |
| 2026-05-06 22:01 | 40.79987 | -77.87487 | 4994 ft | 280 kts | 15° |
| 2026-05-06 22:02 | 40.81746 | -77.86373 | 4719 ft | 283 kts | 35° |
| 2026-05-06 22:02 | 40.83041 | -77.84433 | 4463 ft | 285 kts | 54° |
| 2026-05-06 22:02 | 40.84086 | -77.82243 | 4242 ft | 283 kts | 57° |
| 2026-05-06 22:02 | 40.85088 | -77.80027 | 4070 ft | 278 kts | 57° |
| 2026-05-06 22:03 | 40.86055 | -77.77859 | 4064 ft | 266 kts | 57° |
| 2026-05-06 22:03 | 40.86975 | -77.75800 | 4066 ft | 255 kts | 57° |
| 2026-05-06 22:03 | 40.87851 | -77.73842 | 4064 ft | 247 kts | 57° |
| 2026-05-06 22:03 | 40.88733 | -77.71877 | 4064 ft | 243 kts | 57° |
| 2026-05-06 22:04 | 40.89577 | -77.69997 | 3950 ft | 237 kts | 56° |
| 2026-05-06 22:04 | 40.90631 | -77.68385 | 3811 ft | 225 kts | 27° |
| 2026-05-06 22:04 | 40.92056 | -77.67818 | 3686 ft | 209 kts | 351° |
| 2026-05-06 22:04 | 40.93348 | -77.68407 | 3560 ft | 190 kts | 315° |
| 2026-05-06 22:05 | 40.93982 | -77.69784 | 3466 ft | 171 kts | 276° |
| 2026-05-06 22:05 | 40.93728 | -77.71207 | 3451 ft | 158 kts | 233° |
| 2026-05-06 22:05 | 40.92923 | -77.72141 | 3441 ft | 150 kts | 221° |
| 2026-05-06 22:05 | 40.92113 | -77.72999 | 3235 ft | 146 kts | 225° |
| 2026-05-06 22:06 | 40.91402 | -77.73914 | 3037 ft | 141 kts | 231° |
| 2026-05-06 22:06 | 40.90754 | -77.74870 | 2844 ft | 138 kts | 232° |
| 2026-05-06 22:06 | 40.90144 | -77.75853 | 2664 ft | 139 kts | 236° |
| 2026-05-06 22:06 | 40.89559 | -77.76858 | 2490 ft | 139 kts | 236° |
| 2026-05-06 22:07 | 40.88976 | -77.77874 | 2303 ft | 138 kts | 236° |
| 2026-05-06 22:07 | 40.88397 | -77.78879 | 2128 ft | 138 kts | 236° |
| 2026-05-06 22:07 | 40.87816 | -77.79885 | 1931 ft | 138 kts | 236° |
| 2026-05-06 22:07 | 40.87217 | -77.80922 | 1748 ft | 142 kts | 236° |
| 2026-05-06 22:08 | 40.86618 | -77.81956 | 1558 ft | 142 kts | 237° |
| 2026-05-06 22:08 | 40.86019 | -77.82991 | 1369 ft | 144 kts | 237° |
| 2026-05-06 22:08 | 40.85403 | -77.84038 | 1202 ft | 143 kts | 236° |
| 2026-05-06 22:08 | 40.84928 | -77.84904 | 1221 ft | 63 kts | 229° |
| 2026-05-06 22:09 | 40.84734 | -77.85226 | 1222 ft | 40 kts | 232° |
| 2026-05-06 22:09 | 40.84605 | -77.85444 | 1222 ft | 22 kts | 232° |
| 2026-05-06 22:09 | 40.84580 | -77.85555 | 1219 ft | 12 kts | 306° |
| 2026-05-06 22:09 | 40.84639 | -77.85599 | 1219 ft | 5 kts | 13° |
| 2026-05-06 22:10 | 40.84676 | -77.85561 | 1221 ft | 7 kts | 48° |
| 2026-05-06 22:10 | 40.84717 | -77.85494 | 1223 ft | 11 kts | 53° |
| 2026-05-06 22:10 | 40.84778 | -77.85388 | 1224 ft | 16 kts | 52° |
| 2026-05-06 22:10 | 40.84855 | -77.85255 | 1227 ft | 19 kts | 53° |
| 2026-05-06 22:11 | 40.84935 | -77.85116 | 1225 ft | 20 kts | 53° |
| 2026-05-06 22:11 | 40.84994 | -77.85020 | 1226 ft | 5 kts | 31° |
| 2026-05-06 22:11 | 40.85032 | -77.85027 | 1227 ft | 5 kts | 329° |
| 2026-05-06 22:11 | 40.85036 | -77.85072 | 1227 ft | 3 kts | 237° |
| 2026-05-06 22:12 | 40.85031 | -77.85089 | 1227 ft | 2 kts | 274° |
| 2026-05-06 22:12 | 40.85042 | -77.85113 | 1227 ft | 2 kts | 316° |
| 2026-05-06 22:12 | 40.85044 | -77.85114 | 1227 ft | 0 kts | 323° |
| 2026-05-06 22:12 | 40.85046 | -77.85117 | 1227 ft | 0 kts | 323° |